createdAt,value
2022-08-17T00:00:04.292Z,27.66
2022-08-17T00:02:42.856Z,27.66
2022-08-17T00:05:10.293Z,27.65
2022-08-17T00:07:43.300Z,27.64
2022-08-17T00:10:16.250Z,27.63
2022-08-17T00:12:49.336Z,27.62
2022-08-17T00:15:22.268Z,27.61
2022-08-17T00:17:55.228Z,27.61
2022-08-17T00:20:29.212Z,27.60
2022-08-17T00:23:01.225Z,27.59
2022-08-17T00:25:34.304Z,27.58
2022-08-17T00:28:07.298Z,27.58
2022-08-17T00:30:50.964Z,27.57
2022-08-17T00:33:16.611Z,27.56
2022-08-17T00:35:46.255Z,27.56
2022-08-17T00:38:19.348Z,27.55
2022-08-17T00:40:52.294Z,27.54
2022-08-17T00:43:25.323Z,27.54
2022-08-17T00:45:58.269Z,27.53
2022-08-17T00:48:31.296Z,27.53
2022-08-17T00:51:04.358Z,27.52
2022-08-17T00:53:37.333Z,27.52
2022-08-17T00:56:10.329Z,27.51
2022-08-17T00:58:43.409Z,27.51
2022-08-17T01:01:21.808Z,27.51
2022-08-17T01:03:49.400Z,27.50
2022-08-17T01:06:22.345Z,27.50
2022-08-17T01:08:57.604Z,27.49
2022-08-17T01:11:28.378Z,27.49
2022-08-17T01:14:01.353Z,27.48
2022-08-17T01:16:34.344Z,27.48
2022-08-17T01:19:07.361Z,27.47
2022-08-17T01:21:40.436Z,27.46
2022-08-17T01:24:13.358Z,27.46
2022-08-17T01:26:46.422Z,27.45
2022-08-17T01:29:19.383Z,27.44
2022-08-17T01:31:52.427Z,27.43
2022-08-17T01:34:28.263Z,27.43
2022-08-17T01:36:58.412Z,27.42
2022-08-17T01:39:31.466Z,27.41
2022-08-17T01:42:04.351Z,27.41
2022-08-17T01:44:37.416Z,27.40
2022-08-17T01:47:10.373Z,27.39
2022-08-17T01:49:43.427Z,27.38
2022-08-17T01:52:16.365Z,27.37
2022-08-17T01:54:49.406Z,27.36
2022-08-17T01:57:22.382Z,27.35
2022-08-17T01:59:55.488Z,27.34
2022-08-17T02:02:30.801Z,27.34
2022-08-17T02:05:01.438Z,27.33
2022-08-17T02:07:47.933Z,27.32
2022-08-17T02:10:07.426Z,27.31
2022-08-17T02:12:40.449Z,27.30
2022-08-17T02:15:13.504Z,27.29
2022-08-17T02:17:46.209Z,27.29
2022-08-17T02:20:41.574Z,27.28
2022-08-17T02:22:52.510Z,27.28
2022-08-17T02:25:25.438Z,27.27
2022-08-17T02:27:58.518Z,27.27
2022-08-17T02:31:00.282Z,27.26
2022-08-17T02:33:06.373Z,27.25
2022-08-17T02:35:37.484Z,27.25
2022-08-17T02:38:10.496Z,27.24
2022-08-17T02:40:43.459Z,27.24
2022-08-17T02:43:16.507Z,27.23
2022-08-17T02:45:49.458Z,27.23
2022-08-17T02:48:30.445Z,27.22
2022-08-17T02:50:55.551Z,27.22
2022-08-17T02:53:31.860Z,27.22
2022-08-17T02:56:01.540Z,27.21
2022-08-17T02:58:48.472Z,27.21
2022-08-17T03:01:21.267Z,27.21
2022-08-17T03:03:54.583Z,27.20
2022-08-17T03:06:27.307Z,27.20
2022-08-17T03:09:00.509Z,27.20
2022-08-17T03:11:33.514Z,27.20
2022-08-17T03:14:06.577Z,27.20
2022-08-17T03:16:39.520Z,27.20
2022-08-17T03:19:12.326Z,27.19
2022-08-17T03:21:45.476Z,27.19
2022-08-17T03:24:18.490Z,27.19
2022-08-17T03:26:51.608Z,27.19
2022-08-17T03:29:24.573Z,27.18
2022-08-17T03:31:57.533Z,27.18
2022-08-17T03:34:30.525Z,27.18
2022-08-17T03:37:03.598Z,27.18
2022-08-17T03:39:36.598Z,27.17
2022-08-17T03:42:09.559Z,27.17
2022-08-17T03:44:42.529Z,27.16
2022-08-17T03:47:15.523Z,27.16
2022-08-17T03:49:48.535Z,27.15
2022-08-17T03:52:21.630Z,27.14
2022-08-17T03:54:54.533Z,27.14
2022-08-17T03:57:27.621Z,27.13
2022-08-17T04:00:00.644Z,27.12
2022-08-17T04:02:33.571Z,27.11
2022-08-17T04:05:06.637Z,27.10
2022-08-17T04:07:39.383Z,27.09
2022-08-17T04:10:12.235Z,27.09
2022-08-17T04:12:45.410Z,27.08
2022-08-17T04:15:18.536Z,27.07
2022-08-17T04:17:51.651Z,27.07
2022-08-17T04:20:24.297Z,27.06
2022-08-17T04:22:57.589Z,27.05
2022-08-17T04:25:30.398Z,27.02
2022-08-17T04:28:03.453Z,26.98
2022-08-17T04:30:36.426Z,26.93
2022-08-17T04:33:09.504Z,26.85
2022-08-17T04:35:42.447Z,26.73
2022-08-17T04:38:15.681Z,26.58
2022-08-17T04:43:39.938Z,26.14
2022-08-17T04:46:13.632Z,25.89
2022-08-17T04:48:46.706Z,25.69
2022-08-17T04:51:19.691Z,25.51
2022-08-17T04:53:54.022Z,25.35
2022-08-17T04:56:26.096Z,25.25
2022-08-17T04:58:59.474Z,25.15
2022-08-17T05:01:32.566Z,25.03
2022-08-17T05:04:33.158Z,24.95
2022-08-17T05:06:38.404Z,24.93
2022-08-17T05:09:11.539Z,24.95
2022-08-17T05:11:44.892Z,24.99
2022-08-17T05:14:17.362Z,25.04
2022-08-17T05:16:50.431Z,25.10
2022-08-17T05:19:23.547Z,25.16
2022-08-17T05:21:56.470Z,25.20
2022-08-17T05:24:42.508Z,25.25
2022-08-17T05:27:06.277Z,25.29
2022-08-17T05:29:36.010Z,25.34
2022-08-17T05:32:39.439Z,25.39
2022-08-17T05:34:41.372Z,25.42
2022-08-17T05:37:14.374Z,25.45
2022-08-17T05:39:47.584Z,25.47
2022-08-17T05:42:20.559Z,25.47
2022-08-17T05:44:53.788Z,25.45
2022-08-17T05:47:26.486Z,25.43
2022-08-17T05:49:59.405Z,25.43
2022-08-17T05:52:46.815Z,25.43
2022-08-17T05:55:19.687Z,25.44
2022-08-17T05:57:54.225Z,25.46
2022-08-17T06:00:30.639Z,25.45
2022-08-17T06:02:59.717Z,25.45
2022-08-17T06:05:32.772Z,25.45
2022-08-17T06:08:05.421Z,25.47
2022-08-17T06:10:38.417Z,25.48
2022-08-17T06:13:11.758Z,25.50
2022-08-17T06:15:44.571Z,25.51
2022-08-17T06:18:19.194Z,25.51
2022-08-17T06:20:50.542Z,25.50
2022-08-17T06:23:23.641Z,25.46
2022-08-17T06:25:56.581Z,25.42
2022-08-17T06:28:29.614Z,25.40
2022-08-17T06:31:08.338Z,25.38
2022-08-17T06:33:41.605Z,25.39
2022-08-17T06:36:16.079Z,25.41
2022-08-17T06:38:47.541Z,25.44
2022-08-17T06:41:20.476Z,25.48
2022-08-17T06:43:53.621Z,25.52
2022-08-17T06:46:26.601Z,25.56
2022-08-17T06:48:59.859Z,25.59
2022-08-17T06:51:32.770Z,25.63
2022-08-17T06:54:05.778Z,25.67
2022-08-17T06:56:52.697Z,25.70
2022-08-17T06:59:25.412Z,25.73
2022-08-17T07:01:58.545Z,25.76
2022-08-17T07:04:31.655Z,25.80
2022-08-17T07:07:04.799Z,25.83
2022-08-17T07:09:37.575Z,25.85
2022-08-17T07:12:10.508Z,25.88
2022-08-17T07:14:43.534Z,25.91
2022-08-17T07:17:16.667Z,25.93
2022-08-17T07:19:49.805Z,25.95
2022-08-17T07:22:22.636Z,25.97
2022-08-17T07:24:55.545Z,25.99
2022-08-17T07:27:28.644Z,26.01
2022-08-17T07:30:02.954Z,26.03
2022-08-17T07:32:34.704Z,26.05
2022-08-17T07:35:07.609Z,26.07
2022-08-17T07:37:40.732Z,26.08
2022-08-17T07:40:15.958Z,26.10
2022-08-17T07:42:48.558Z,26.11
2022-08-17T07:45:21.565Z,26.13
2022-08-17T07:47:54.709Z,26.14
2022-08-17T07:50:27.743Z,26.15
2022-08-17T07:53:00.711Z,26.17
2022-08-17T07:55:33.665Z,26.18
2022-08-17T07:58:06.754Z,26.19
2022-08-17T08:00:39.606Z,26.20
2022-08-17T08:03:12.875Z,26.21
2022-08-17T08:05:50.044Z,26.22
2022-08-17T08:08:18.975Z,26.23
2022-08-17T08:10:51.744Z,26.24
2022-08-17T08:13:24.656Z,26.25
2022-08-17T08:15:57.676Z,26.26
2022-08-17T08:18:53.706Z,26.26
2022-08-17T08:21:03.784Z,26.27
2022-08-17T08:23:36.644Z,26.28
2022-08-17T08:26:09.904Z,26.29
2022-08-17T08:28:42.774Z,26.29
2022-08-17T08:31:15.898Z,26.30
2022-08-17T08:33:48.990Z,26.31
2022-08-17T08:37:14.295Z,26.31
2022-08-17T08:38:54.682Z,26.32
2022-08-17T08:41:27.636Z,26.33
2022-08-17T08:44:00.746Z,26.33
2022-08-17T08:46:33.951Z,26.34
2022-08-17T08:49:11.880Z,26.34
2022-08-17T08:51:40.050Z,26.35
2022-08-17T08:54:12.652Z,26.36
2022-08-17T08:57:11.929Z,26.36
2022-08-17T08:59:19.007Z,26.37
2022-08-17T09:01:52.051Z,26.37
2022-08-17T09:04:30.820Z,26.38
2022-08-17T09:07:03.851Z,26.39
2022-08-17T09:09:36.800Z,26.39
2022-08-17T09:12:09.717Z,26.40
2022-08-17T09:14:45.463Z,26.40
2022-08-17T09:17:16.514Z,26.40
2022-08-17T09:19:49.074Z,26.41
2022-08-17T09:22:21.966Z,26.41
2022-08-17T09:24:54.688Z,26.42
2022-08-17T09:27:27.891Z,26.42
2022-08-17T09:30:00.818Z,26.43
2022-08-17T09:32:33.934Z,26.43
2022-08-17T09:35:06.866Z,26.43
2022-08-17T09:37:39.846Z,26.44
2022-08-17T09:40:12.825Z,26.44
2022-08-17T09:42:45.858Z,26.44
2022-08-17T09:45:19.000Z,26.45
2022-08-17T09:47:52.095Z,26.45
2022-08-17T09:50:55.516Z,26.46
2022-08-17T09:52:58.033Z,26.46
2022-08-17T09:55:31.114Z,26.47
2022-08-17T09:58:07.102Z,26.47
2022-08-17T10:00:39.988Z,26.47
2022-08-17T10:03:26.712Z,26.48
2022-08-17T10:05:59.985Z,26.48
2022-08-17T10:08:32.807Z,26.49
2022-08-17T10:11:06.199Z,26.49
2022-08-17T10:13:38.870Z,26.50
2022-08-17T10:16:11.774Z,26.50
2022-08-17T10:18:44.881Z,26.50
2022-08-17T10:21:17.831Z,26.51
2022-08-17T10:23:50.907Z,26.51
2022-08-17T10:26:23.968Z,26.52
2022-08-17T10:28:56.772Z,26.52
2022-08-17T10:31:34.819Z,26.52
2022-08-17T10:34:02.776Z,26.53
2022-08-17T10:36:36.074Z,26.53
2022-08-17T10:39:08.818Z,26.53
2022-08-17T10:41:42.045Z,26.53
2022-08-17T10:44:39.907Z,26.54
2022-08-17T10:46:47.887Z,26.54
2022-08-17T10:49:20.911Z,26.54
2022-08-17T10:51:54.009Z,26.55
2022-08-17T10:54:27.068Z,26.55
2022-08-17T10:57:00.062Z,26.56
2022-08-17T10:59:32.925Z,26.56
2022-08-17T11:02:08.002Z,26.56
2022-08-17T11:04:40.926Z,26.56
2022-08-17T11:07:13.952Z,26.57
2022-08-17T11:09:52.964Z,26.57
2022-08-17T11:12:26.052Z,26.57
2022-08-17T11:14:59.108Z,26.57
2022-08-17T11:17:32.024Z,26.58
2022-08-17T11:20:05.086Z,26.58
2022-08-17T11:22:38.037Z,26.58
2022-08-17T11:25:10.997Z,26.58
2022-08-17T11:27:44.044Z,26.59
2022-08-17T11:30:17.402Z,26.59
2022-08-17T11:32:54.811Z,26.59
2022-08-17T11:35:23.043Z,26.60
2022-08-17T11:37:56.073Z,26.60
2022-08-17T11:40:29.099Z,26.60
2022-08-17T11:43:02.140Z,26.61
2022-08-17T11:45:35.012Z,26.61
2022-08-17T11:48:27.316Z,26.61
2022-08-17T11:50:41.051Z,26.62
2022-08-17T11:53:13.940Z,26.62
2022-08-17T11:55:47.227Z,26.62
2022-08-17T11:58:20.074Z,26.63
2022-08-17T12:00:53.048Z,26.63
2022-08-17T12:03:26.247Z,26.63
2022-08-17T12:05:58.918Z,26.64
2022-08-17T12:08:32.121Z,26.64
2022-08-17T12:11:05.101Z,26.64
2022-08-17T12:13:39.434Z,26.65
2022-08-17T12:16:10.982Z,26.65
2022-08-17T12:18:44.142Z,26.66
2022-08-17T12:21:18.361Z,26.66
2022-08-17T12:23:49.953Z,26.66
2022-08-17T12:26:23.120Z,26.67
2022-08-17T12:28:56.088Z,26.67
2022-08-17T12:31:29.138Z,26.68
2022-08-17T12:34:01.978Z,26.68
2022-08-17T12:36:35.186Z,26.68
2022-08-17T12:39:13.772Z,26.69
2022-08-17T12:41:41.135Z,26.69
2022-08-17T12:44:13.986Z,26.69
2022-08-17T12:46:47.187Z,26.70
2022-08-17T12:49:20.050Z,26.70
2022-08-17T12:51:53.188Z,26.70
2022-08-17T12:54:26.006Z,26.71
2022-08-17T12:56:59.086Z,26.71
2022-08-17T12:59:31.998Z,26.72
2022-08-17T13:02:05.143Z,26.72
2022-08-17T13:04:38.206Z,26.72
2022-08-17T13:07:11.075Z,26.73
2022-08-17T13:09:44.264Z,26.73
2022-08-17T13:12:17.317Z,26.73
2022-08-17T13:14:50.124Z,26.74
2022-08-17T13:17:23.255Z,26.74
2022-08-17T13:19:56.014Z,26.74
2022-08-17T13:22:29.290Z,26.74
2022-08-17T13:25:02.234Z,26.75
2022-08-17T13:27:35.174Z,26.75
2022-08-17T13:30:08.227Z,26.75
2022-08-17T13:32:43.945Z,26.76
2022-08-17T13:35:29.650Z,26.76
2022-08-17T13:37:49.539Z,26.77
2022-08-17T13:40:22.331Z,26.77
2022-08-17T13:42:55.124Z,26.77
2022-08-17T13:45:36.562Z,26.77
2022-08-17T13:48:01.289Z,26.78
2022-08-17T13:50:34.072Z,26.78
2022-08-17T13:53:07.280Z,26.78
2022-08-17T13:55:40.228Z,26.79
2022-08-17T13:58:13.080Z,26.80
2022-08-17T14:00:46.275Z,26.80
2022-08-17T14:03:19.274Z,26.81
2022-08-17T14:05:52.185Z,26.81
2022-08-17T14:08:25.290Z,26.82
2022-08-17T14:10:58.238Z,26.82
2022-08-17T14:13:31.249Z,26.83
2022-08-17T14:16:04.400Z,26.83
2022-08-17T14:18:56.103Z,26.83
2022-08-17T14:21:10.157Z,26.84
2022-08-17T14:23:49.102Z,26.84
2022-08-17T14:26:17.147Z,26.85
2022-08-17T14:28:56.247Z,26.85
2022-08-17T14:31:23.137Z,26.86
2022-08-17T14:33:56.546Z,26.87
2022-08-17T14:36:30.397Z,26.88
2022-08-17T14:39:03.158Z,26.89
2022-08-17T14:41:36.266Z,26.90
2022-08-17T14:44:09.208Z,26.91
2022-08-17T14:46:42.264Z,26.92
2022-08-17T14:49:15.181Z,26.94
2022-08-17T14:51:48.362Z,26.96
2022-08-17T14:54:33.041Z,26.97
2022-08-17T14:56:54.282Z,26.99
2022-08-17T14:59:27.368Z,27.01
2022-08-17T15:02:00.249Z,27.02
2022-08-17T15:04:33.333Z,27.04
2022-08-17T15:07:06.168Z,27.06
2022-08-17T15:09:39.438Z,27.08
2022-08-17T15:12:12.190Z,27.10
2022-08-17T15:14:45.345Z,27.12
2022-08-17T15:17:18.485Z,27.14
2022-08-17T15:19:51.407Z,27.16
2022-08-17T15:22:24.314Z,27.18
2022-08-17T15:24:57.375Z,27.19
2022-08-17T15:27:32.727Z,27.22
2022-08-17T15:30:03.249Z,27.23
2022-08-17T15:32:36.371Z,27.25
2022-08-17T15:35:09.236Z,27.27
2022-08-17T15:37:42.522Z,27.28
2022-08-17T15:40:15.605Z,27.30
2022-08-17T15:42:48.217Z,27.32
2022-08-17T15:45:21.414Z,27.34
2022-08-17T15:47:54.239Z,27.35
2022-08-17T15:50:27.250Z,27.37
2022-08-17T15:53:00.395Z,27.39
2022-08-17T15:55:33.560Z,27.41
2022-08-17T15:58:06.421Z,27.42
2022-08-17T16:00:52.914Z,27.44
2022-08-17T16:03:44.544Z,27.45
2022-08-17T16:05:45.470Z,27.46
2022-08-17T16:08:21.084Z,27.48
2022-08-17T16:10:51.307Z,27.49
2022-08-17T16:13:24.658Z,27.50
2022-08-17T16:15:57.702Z,27.51
2022-08-17T16:18:30.702Z,27.52
2022-08-17T16:21:03.307Z,27.53
2022-08-17T16:23:36.440Z,27.54
2022-08-17T16:26:09.285Z,27.55
2022-08-17T16:28:42.462Z,27.56
2022-08-17T16:31:15.488Z,27.57
2022-08-17T16:34:15.689Z,27.58
2022-08-17T16:36:21.595Z,27.59
2022-08-17T16:38:57.417Z,27.60
2022-08-17T16:41:30.460Z,27.61
2022-08-17T16:44:03.506Z,27.63
2022-08-17T16:46:36.562Z,27.64
2022-08-17T16:49:09.336Z,27.65
2022-08-17T16:51:42.546Z,27.66
2022-08-17T16:57:05.722Z,27.69
2022-08-17T16:59:40.896Z,27.70
2022-08-17T17:02:11.477Z,27.72
2022-08-17T17:04:44.525Z,27.73
2022-08-17T17:07:17.455Z,27.74
2022-08-17T17:09:50.592Z,27.75
2022-08-17T17:12:59.435Z,27.76
2022-08-17T17:14:56.378Z,27.77
2022-08-17T17:17:29.520Z,27.79
2022-08-17T17:20:02.504Z,27.80
2022-08-17T17:22:35.583Z,27.81
2022-08-17T17:25:08.382Z,27.82
2022-08-17T17:27:41.574Z,27.83
2022-08-17T17:30:14.434Z,27.84
2022-08-17T17:32:47.477Z,27.85
2022-08-17T17:35:20.533Z,27.86
2022-08-17T17:37:53.593Z,27.88
2022-08-17T17:40:26.593Z,27.89
2022-08-17T17:43:14.246Z,27.89
2022-08-17T17:45:32.408Z,27.90
2022-08-17T17:48:05.502Z,27.91
2022-08-17T17:50:38.578Z,27.92
2022-08-17T17:53:11.431Z,27.93
2022-08-17T17:55:44.775Z,27.94
2022-08-17T17:58:17.430Z,27.95
2022-08-17T18:00:50.626Z,27.96
2022-08-17T18:03:23.495Z,27.97
2022-08-17T18:05:56.623Z,27.97
2022-08-17T18:08:32.363Z,27.98
2022-08-17T18:11:04.726Z,27.99
2022-08-17T18:13:35.607Z,27.99
2022-08-17T18:16:08.455Z,28.00
2022-08-17T18:18:41.584Z,28.01
2022-08-17T18:21:14.609Z,28.02
2022-08-17T18:23:47.509Z,28.03
2022-08-17T18:26:20.749Z,28.05
2022-08-17T18:28:53.508Z,28.06
2022-08-17T18:31:26.490Z,28.06
2022-08-17T18:33:59.612Z,28.07
2022-08-17T18:36:32.552Z,28.08
2022-08-17T18:39:05.534Z,28.08
2022-08-17T18:41:38.532Z,28.10
2022-08-17T18:44:11.495Z,28.11
2022-08-17T18:46:44.601Z,28.12
2022-08-17T18:49:19.485Z,28.13
2022-08-17T18:51:53.511Z,28.13
2022-08-17T18:54:26.779Z,28.11
2022-08-17T18:56:59.802Z,28.10
2022-08-17T18:59:32.892Z,28.09
2022-08-17T19:02:13.711Z,28.07
2022-08-17T19:04:52.578Z,28.05
2022-08-17T19:07:25.824Z,28.03
2022-08-17T19:09:58.582Z,28.01
2022-08-17T19:12:31.730Z,27.99
2022-08-17T19:15:04.614Z,27.97
2022-08-17T19:17:37.656Z,27.95
2022-08-17T19:20:10.546Z,27.93
2022-08-17T19:22:43.721Z,27.91
2022-08-17T19:25:17.098Z,27.90
2022-08-17T19:27:50.083Z,27.88
2022-08-17T19:30:22.840Z,27.86
2022-08-17T19:32:55.764Z,27.84
2022-08-17T19:35:28.636Z,27.83
2022-08-17T19:38:01.661Z,27.81
2022-08-17T19:40:52.228Z,27.80
2022-08-17T19:43:07.724Z,27.79
2022-08-17T19:45:42.569Z,27.79
2022-08-17T19:48:15.565Z,27.78
2022-08-17T19:50:48.664Z,27.78
2022-08-17T19:53:21.762Z,27.78
2022-08-17T19:55:54.987Z,27.78
2022-08-17T19:58:27.762Z,27.79
2022-08-17T20:01:00.988Z,27.80
2022-08-17T20:03:33.718Z,27.80
2022-08-17T20:06:13.153Z,27.80
2022-08-17T20:08:39.777Z,27.81
2022-08-17T20:11:12.637Z,27.81
2022-08-17T20:13:45.752Z,27.82
2022-08-17T20:16:18.786Z,27.82
2022-08-17T20:18:51.617Z,27.82
2022-08-17T20:21:24.742Z,27.81
2022-08-17T20:23:57.614Z,27.81
2022-08-17T20:26:30.796Z,27.81
2022-08-17T20:29:03.716Z,27.80
2022-08-17T20:31:36.828Z,27.79
2022-08-17T20:34:09.661Z,27.79
2022-08-17T20:36:42.835Z,27.78
2022-08-17T20:39:15.962Z,27.78
2022-08-17T20:41:49.038Z,27.77
2022-08-17T20:44:21.965Z,27.76
2022-08-17T20:46:55.061Z,27.76
2022-08-17T20:49:27.836Z,27.75
2022-08-17T20:52:02.382Z,27.74
2022-08-17T20:54:33.973Z,27.74
2022-08-17T20:57:13.973Z,27.73
2022-08-17T20:59:39.970Z,27.72
2022-08-17T21:02:18.430Z,27.71
2022-08-17T21:04:46.050Z,27.70
2022-08-17T21:07:19.071Z,27.69
2022-08-17T21:09:52.047Z,27.68
2022-08-17T21:12:25.011Z,27.68
2022-08-17T21:14:58.116Z,27.67
2022-08-17T21:17:31.033Z,27.66
2022-08-17T21:20:12.392Z,27.66
2022-08-17T21:22:37.026Z,27.65
2022-08-17T21:25:10.098Z,27.65
2022-08-17T21:27:43.012Z,27.64
2022-08-17T21:30:16.110Z,27.63
2022-08-17T21:32:49.116Z,27.62
2022-08-17T21:35:22.004Z,27.61
2022-08-17T21:37:55.040Z,27.61
2022-08-17T21:40:28.002Z,27.60
2022-08-17T21:43:01.125Z,27.59
2022-08-17T21:45:34.147Z,27.59
2022-08-17T21:48:07.069Z,27.58
2022-08-17T21:50:40.148Z,27.57
2022-08-17T21:53:13.008Z,27.56
2022-08-17T21:55:46.162Z,27.56
2022-08-17T21:58:19.103Z,27.55
2022-08-17T22:00:52.263Z,27.54
2022-08-17T22:03:25.044Z,27.53
2022-08-17T22:05:58.194Z,27.52
2022-08-17T22:08:31.110Z,27.51
2022-08-17T22:11:04.174Z,27.51
2022-08-17T22:13:37.168Z,27.50
2022-08-17T22:16:27.763Z,27.49
2022-08-17T22:18:43.177Z,27.48
2022-08-17T22:21:16.164Z,27.47
2022-08-17T22:23:49.190Z,27.46
2022-08-17T22:26:22.062Z,27.45
2022-08-17T22:28:55.209Z,27.44
2022-08-17T22:31:28.073Z,27.43
2022-08-17T22:34:01.206Z,27.42
2022-08-17T22:36:34.220Z,27.42
2022-08-17T22:39:07.162Z,27.41
2022-08-17T22:41:40.164Z,27.41
2022-08-17T22:44:13.187Z,27.40
2022-08-17T22:46:46.125Z,27.40
2022-08-17T22:49:19.202Z,27.39
2022-08-17T22:51:52.112Z,27.39
2022-08-17T22:54:25.167Z,27.38
2022-08-17T22:56:58.158Z,27.37
2022-08-17T22:59:31.253Z,27.36
2022-08-17T23:02:04.139Z,27.36
2022-08-17T23:04:37.210Z,27.35
2022-08-17T23:07:10.157Z,27.35
2022-08-17T23:09:43.232Z,27.34
2022-08-17T23:12:16.291Z,27.34
2022-08-17T23:14:49.155Z,27.33
2022-08-17T23:17:22.183Z,27.33
2022-08-17T23:19:55.223Z,27.32
2022-08-17T23:22:27.878Z,27.32
2022-08-17T23:25:01.274Z,27.32
2022-08-17T23:27:34.221Z,27.31
2022-08-17T23:30:07.249Z,27.31
2022-08-17T23:32:44.338Z,27.30
2022-08-17T23:35:13.201Z,27.30
2022-08-17T23:37:46.261Z,27.29
2022-08-17T23:40:19.267Z,27.28
2022-08-17T23:42:52.318Z,27.28
2022-08-17T23:45:25.180Z,27.27
2022-08-17T23:47:58.243Z,27.26
2022-08-17T23:50:31.316Z,27.26
2022-08-17T23:53:04.184Z,27.25
2022-08-17T23:55:37.325Z,27.25
2022-08-17T23:58:10.298Z,27.25
